Terminal Aerodrome Forecast
Issued by NWS

Home | Current Version | Previous Version | Text Only | Print | Product List | Glossary On
Versions: 1 2 3 4 5 6 7 8 9 10 11 12 13 14 15 16 17 18 19 20 21 22 23 24 25 26 27 28 29 30
000
FTUS43 KDMX 231738
TAFMCW
TAF
KMCW 231738Z 2318/2418 30011KT P6SM SCT008
     FM240400 36005KT 2SM BR SCT015
     FM240600 03005KT 3/4SM BR BKN004
     FM241300 08008KT P6SM BKN009
     FM241500 09010KT P6SM BKN012
     FM241700 10011G17KT 3SM -SN OVC012=

USA.gov is the U.S. government's official web portal to all federal, state and local government web resources and services.